D/T METAR WX W/DIR W/SPE G/SPE TEMP DEWP
23/03/19 12:20 EGHI 231220Z 06004KT 010V130 9999 FEW018 BKN024 10/06 Q1032 ENE (60°) 4.6mph 10°C 6°C
23/03/19 11:50 EGHI 231150Z 04008KT 010V080 9999 FEW018 BKN025 10/07 Q1032 NE (40°) 9.2mph 10°C 7°C
23/03/19 11:20 EGHI 231120Z 04007KT 010V070 9999 SCT011 BKN025 09/07 Q1032 NE (40°) 8.1mph 9°C 7°C
23/03/19 10:50 EGHI 231050Z 03008KT 360V060 7000 BKN011 09/07 Q1032 NNE (30°) 9.2mph 9°C 7°C
23/03/19 10:20 EGHI 231020Z 02008KT 360V060 9999 BKN017 10/07 Q1032 NNE (20°) 9.2mph 10°C 7°C
23/03/19 09:50 EGHI 230950Z 04006KT 360V080 9999 SCT015 BKN022 10/07 Q1032 NE (40°) 6.9mph 10°C 7°C
23/03/19 09:20 EGHI 230920Z 04005KT 010V080 9999 SCT015 BKN025 10/07 Q1032 NE (40°) 5.8mph 10°C 7°C
23/03/19 08:50 EGHI 230850Z 04005KT 9999 FEW020 BKN030 10/07 Q1031 NE (40°) 5.8mph 10°C 7°C
23/03/19 08:20 EGHI 230820Z 04004KT 360V080 9999 FEW010 BKN030 09/07 Q1031 NE (40°) 4.6mph 9°C 7°C
23/03/19 07:50 EGHI 230750Z VRB01KT 9999 FEW010 BKN035 08/07 Q1031 N (0°) 1.2mph 8°C 7°C
23/03/19 07:20 EGHI 230720Z 02003KT 6000 FEW010 BKN033 08/07 Q1031 NNE (20°) 3.5mph 8°C 7°C
23/03/19 06:50 EGHI 230650Z VRB01KT 3500 BR FEW008 BKN011 08/07 Q1031 BR N (0°) 1.2mph 8°C 7°C
23/03/19 06:20 EGHI 230620Z 00000KT 4000 BR FEW010 BKN030 07/06 Q1030 BR N (0°) 7°C 6°C
22/03/19 22:20 EGHI 222220Z VRB02KT 9999 FEW014 BKN028 09/07 Q1029 N (0°) 2.3mph 9°C 7°C
22/03/19 21:20 EGHI 222120Z 22003KT 9999 FEW014 BKN032 09/07 Q1029 SW (220°) 3.5mph 9°C 7°C
22/03/19 20:50 EGHI 222050Z 23002KT 9999 FEW014 BKN030 09/07 Q1029 SW (230°) 2.3mph 9°C 7°C
22/03/19 20:20 EGHI 222020Z 21003KT 9999 FEW014 BKN029 09/07 Q1028 SSW (210°) 3.5mph 9°C 7°C
22/03/19 19:50 EGHI 221950Z VRB03KT 9999 FEW014 BKN030 09/07 Q1028 N (0°) 3.5mph 9°C 7°C
22/03/19 19:20 EGHI 221920Z 21004KT 170V240 9999 FEW012 BKN029 09/07 Q1028 SSW (210°) 4.6mph 9°C 7°C
22/03/19 18:50 EGHI 221850Z 20004KT 9999 FEW012 BKN028 09/07 Q1028 SSW (200°) 4.6mph 9°C 7°C
22/03/19 18:20 EGHI 221820Z VRB03KT 9999 VCSH SCT018 BKN028 09/07 Q1028 VCSH N (0°) 3.5mph 9°C 7°C
22/03/19 17:50 EGHI 221750Z 22004KT 190V250 9999 VCSH SCT014 BKN023 09/07 Q1028 VCSH SW (220°) 4.6mph 9°C 7°C
22/03/19 17:20 EGHI 221720Z 23005KT 200V270 9999 BKN014 09/07 Q1028 SW (230°) 5.8mph 9°C 7°C
22/03/19 16:50 EGHI 221650Z 21005KT 180V260 9999 BKN015 09/07 Q1027 SSW (210°) 5.8mph 9°C 7°C
22/03/19 16:20 EGHI 221620Z 20006KT 9999 FEW012 BKN016 09/07 Q1027 SSW (200°) 6.9mph 9°C 7°C
22/03/19 15:50 EGHI 221550Z 19006KT 9999 FEW012 BKN016 09/07 Q1028 S (190°) 6.9mph 9°C 7°C
22/03/19 15:20 EGHI 221520Z 19005KT 9999 SCT012 BKN019 09/07 Q1028 S (190°) 5.8mph 9°C 7°C
22/03/19 14:50 EGHI 221450Z 21005KT 170V260 9999 SCT012 BKN016 09/07 Q1028 SSW (210°) 5.8mph 9°C 7°C
22/03/19 14:20 EGHI 221420Z 23007KT 200V260 9999 -DZ SCT010 BKN015 09/07 Q1028 -DZ SW (230°) 8.1mph 9°C 7°C
22/03/19 13:50 EGHI 221350Z 20007KT 9999 BKN013 09/07 Q1028 SSW (200°) 8.1mph 9°C 7°C
22/03/19 13:20 EGHI 221320Z 19006KT 170V230 9999 BKN016 10/06 Q1028 S (190°) 6.9mph 10°C 6°C
22/03/19 12:50 EGHI 221250Z 21006KT 180V260 9999 OVC016 10/06 Q1028 SSW (210°) 6.9mph 10°C 6°C
22/03/19 12:20 EGHI 221220Z VRB03KT 9999 OVC017 10/06 Q1029 N (0°) 3.5mph 10°C 6°C
22/03/19 11:50 EGHI 221150Z 19004KT 160V240 9999 SCT015 OVC017 09/06 Q1029 S (190°) 4.6mph 9°C 6°C
22/03/19 11:20 EGHI 221120Z 19004KT 160V220 9999 SCT015 OVC017 09/06 Q1029 S (190°) 4.6mph 9°C 6°C
22/03/19 10:50 EGHI 221050Z 20004KT 150V240 9999 SCT015 OVC017 09/06 Q1029 SSW (200°) 4.6mph 9°C 6°C
22/03/19 10:20 EGHI 221020Z 20004KT 150V240 9999 SCT012 OVC015 09/06 Q1029 SSW (200°) 4.6mph 9°C 6°C
22/03/19 09:50 EGHI 220950Z 23007KT 210V270 9999 SCT012 OVC015 09/06 Q1029 SW (230°) 8.1mph 9°C 6°C
22/03/19 09:20 EGHI 220920Z VRB03KT 9999 SCT010 OVC013 09/06 Q1029 N (0°) 3.5mph 9°C 6°C
22/03/19 08:50 EGHI 220850Z 22005KT 190V260 9999 SCT010 OVC013 08/06 Q1029 SW (220°) 5.8mph 8°C 6°C
22/03/19 08:20 EGHI 220820Z 23005KT 200V260 9999 BKN010 08/06 Q1029 SW (230°) 5.8mph 8°C 6°C
22/03/19 07:50 EGHI 220750Z 19004KT 9999 BKN010 08/06 Q1029 S (190°) 4.6mph 8°C 6°C
22/03/19 07:20 EGHI 220720Z 18004KT 140V200 9999 BKN010 08/06 Q1029 S (180°) 4.6mph 8°C 6°C
22/03/19 06:50 EGHI 220650Z VRB03KT 9999 BKN010 08/06 Q1029 N (0°) 3.5mph 8°C 6°C
22/03/19 06:20 EGHI 220620Z 21007KT 170V240 9999 BKN010 08/06 Q1029 SSW (210°) 8.1mph 8°C 6°C
22/03/19 05:50 EGHI 220550Z 21006KT 170V240 9999 BKN010 08/06 Q1029 SSW (210°) 6.9mph 8°C 6°C
21/03/19 22:20 EGHI 212220Z VRB03KT 9999 OVC021 10/07 Q1031 N (0°) 3.5mph 10°C 7°C
21/03/19 21:50 EGHI 212150Z VRB01KT 9999 OVC021 10/08 Q1032 N (0°) 1.2mph 10°C 8°C
21/03/19 21:20 EGHI 212120Z 00000KT 9999 BKN022 10/08 Q1032 N (0°) 10°C 8°C
21/03/19 20:50 EGHI 212050Z VRB01KT 9999 BKN022 10/08 Q1032 N (0°) 1.2mph 10°C 8°C
21/03/19 20:20 EGHI 212020Z 21003KT 9999 BKN022 10/08 Q1032 SSW (210°) 3.5mph 10°C 8°C
21/03/19 19:50 EGHI 211950Z VRB01KT 9999 BKN020 10/08 Q1032 N (0°) 1.2mph 10°C 8°C
21/03/19 19:20 EGHI 211920Z VRB02KT 9999 FEW015 BKN021 10/08 Q1032 N (0°) 2.3mph 10°C 8°C
21/03/19 18:50 EGHI 211850Z VRB02KT 9999 BKN021 10/08 Q1032 N (0°) 2.3mph 10°C 8°C
21/03/19 18:20 EGHI 211820Z 18002KT 9999 OVC021 11/08 Q1032 S (180°) 2.3mph 11°C 8°C
21/03/19 17:50 EGHI 211750Z VRB02KT 9999 OVC020 11/08 Q1032 N (0°) 2.3mph 11°C 8°C
21/03/19 17:20 EGHI 211720Z VRB03KT 9999 BKN021 11/08 Q1032 N (0°) 3.5mph 11°C 8°C
21/03/19 16:50 EGHI 211650Z 10002KT 9999 BKN020 12/08 Q1032 E (100°) 2.3mph 12°C 8°C
21/03/19 16:20 EGHI 211620Z 00000KT 9999 BKN020 12/08 Q1032 N (0°) 12°C 8°C
21/03/19 15:50 EGHI 211550Z VRB02KT 9999 BKN020 12/08 Q1032 N (0°) 2.3mph 12°C 8°C
21/03/19 15:20 EGHI 211520Z VRB02KT 9999 BKN020 12/08 Q1032 N (0°) 2.3mph 12°C 8°C
21/03/19 14:50 EGHI 211450Z VRB03KT 9999 BKN020 12/08 Q1033 N (0°) 3.5mph 12°C 8°C
21/03/19 14:20 EGHI 211420Z VRB03KT 9999 BKN019 12/08 Q1033 N (0°) 3.5mph 12°C 8°C
21/03/19 13:50 EGHI 211350Z VRB03KT 9999 BKN019 12/08 Q1033 N (0°) 3.5mph 12°C 8°C
21/03/19 13:20 EGHI 211320Z VRB03KT 9999 FEW015 BKN019 12/09 Q1033 N (0°) 3.5mph 12°C 9°C
21/03/19 12:50 EGHI 211250Z VRB03KT 9999 BKN016 12/08 Q1034 N (0°) 3.5mph 12°C 8°C
21/03/19 12:20 EGHI 211220Z VRB03KT 9999 BKN015 11/08 Q1034 N (0°) 3.5mph 11°C 8°C
21/03/19 11:50 EGHI 211150Z VRB01KT 9999 BKN017 11/08 Q1034 N (0°) 1.2mph 11°C 8°C
21/03/19 11:20 EGHI 211120Z VRB01KT 9999 BKN013 11/08 Q1034 N (0°) 1.2mph 11°C 8°C
21/03/19 10:50 EGHI 211050Z VRB02KT 9999 BKN013 10/08 Q1034 N (0°) 2.3mph 10°C 8°C
21/03/19 10:20 EGHI 211020Z VRB02KT 9999 SCT009 BKN015 10/08 Q1034 N (0°) 2.3mph 10°C 8°C
21/03/19 09:50 EGHI 210950Z VRB01KT 9999 FEW007 BKN010 10/08 Q1035 N (0°) 1.2mph 10°C 8°C
21/03/19 09:20 EGHI 210920Z VRB02KT 9000 DZ FEW007 BKN010 10/08 Q1035 DZ N (0°) 2.3mph 10°C 8°C
21/03/19 08:50 EGHI 210850Z VRB01KT 9000 FEW007 BKN010 10/08 Q1034 N (0°) 1.2mph 10°C 8°C
21/03/19 08:20 EGHI 210820Z 00000KT 9000 FEW007 BKN014 09/08 Q1034 N (0°) 9°C 8°C
21/03/19 07:50 EGHI 210750Z 00000KT 7000 FEW007 BKN014 09/08 Q1034 N (0°) 9°C 8°C
21/03/19 07:20 EGHI 210720Z VRB01KT 7000 BKN012 09/07 Q1034 N (0°) 1.2mph 9°C 7°C
21/03/19 06:50 EGHI 210650Z 00000KT 5000 BR FEW007 BKN015 09/07 Q1034 BR N (0°) 9°C 7°C
21/03/19 06:20 EGHI 210620Z VRB02KT 5000 -DZ BR FEW007 BKN012 09/07 Q1034 -DZ BR N (0°) 2.3mph 9°C 7°C
21/03/19 05:50 EGHI 210550Z 00000KT 5000 -DZ BR FEW007 BKN014 09/07 Q1034 -DZ BR N (0°) 9°C 7°C
20/03/19 22:20 EGHI 202220Z VRB02KT 9999 BKN018 09/07 Q1034 N (0°) 2.3mph 9°C 7°C
20/03/19 21:50 EGHI 202150Z VRB01KT 9999 BKN016 09/06 Q1034 N (0°) 1.2mph 9°C 6°C
20/03/19 21:20 EGHI 202120Z VRB03KT 9999 BKN012 09/06 Q1034 N (0°) 3.5mph 9°C 6°C
20/03/19 20:50 EGHI 202050Z 24004KT 200V280 9999 BKN010 09/06 Q1034 WSW (240°) 4.6mph 9°C 6°C
20/03/19 20:20 EGHI 202020Z 24004KT 9999 BKN012 09/06 Q1034 WSW (240°) 4.6mph 9°C 6°C
20/03/19 19:50 EGHI 201950Z 23005KT 190V250 9999 BKN010 09/07 Q1034 SW (230°) 5.8mph 9°C 7°C
20/03/19 19:20 EGHI 201920Z 22006KT 9999 BKN010 09/07 Q1034 SW (220°) 6.9mph 9°C 7°C
20/03/19 18:50 EGHI 201850Z 19008KT 9999 BKN010 09/07 Q1034 S (190°) 9.2mph 9°C 7°C
20/03/19 18:20 EGHI 201820Z 19007KT 9999 BKN013 09/07 Q1033 S (190°) 8.1mph 9°C 7°C
20/03/19 17:50 EGHI 201750Z 19006KT 9999 SCT011 BKN018 10/07 Q1033 S (190°) 6.9mph 10°C 7°C
20/03/19 17:20 EGHI 201720Z 20007KT 9999 FEW015 BKN018 10/07 Q1033 SSW (200°) 8.1mph 10°C 7°C
20/03/19 16:50 EGHI 201650Z 20009KT 150V220 9999 FEW017 BKN021 10/07 Q1033 SSW (200°) 10.4mph 10°C 7°C
20/03/19 16:20 EGHI 201620Z 19008KT 9999 FEW018 BKN022 11/07 Q1033 S (190°) 9.2mph 11°C 7°C
20/03/19 15:50 EGHI 201550Z 19008KT 160V220 9999 FEW016 BKN021 11/07 Q1033 S (190°) 9.2mph 11°C 7°C
20/03/19 15:20 EGHI 201520Z 18007KT 9999 FEW016 BKN020 11/07 Q1033 S (180°) 8.1mph 11°C 7°C
20/03/19 14:50 EGHI 201450Z 21007KT 190V250 9999 BKN017 12/08 Q1033 SSW (210°) 8.1mph 12°C 8°C
20/03/19 14:20 EGHI 201420Z 22007KT 200V260 9999 BKN018 11/08 Q1033 SW (220°) 8.1mph 11°C 8°C
20/03/19 13:50 EGHI 201350Z 21009KT 180V240 9999 BKN017 11/08 Q1033 SSW (210°) 10.4mph 11°C 8°C
20/03/19 13:20 EGHI 201320Z 22008KT 180V240 9999 BKN017 11/08 Q1033 SW (220°) 9.2mph 11°C 8°C
20/03/19 12:50 EGHI 201250Z 19008KT 9999 BKN017 11/08 Q1033 S (190°) 9.2mph 11°C 8°C
20/03/19 12:20 EGHI 201220Z 22009KT 9999 BKN016 11/08 Q1033 SW (220°) 10.4mph 11°C 8°C
20/03/19 11:50 EGHI 201150Z 19006KT 160V220 9999 BKN015 11/08 Q1033 S (190°) 6.9mph 11°C 8°C
20/03/19 11:20 EGHI 201120Z 20004KT 170V230 9999 BKN015 11/08 Q1033 SSW (200°) 4.6mph 11°C 8°C
20/03/19 10:50 EGHI 201050Z 19004KT 140V260 9999 FEW009 BKN014 10/08 Q1034 S (190°) 4.6mph 10°C 8°C
20/03/19 10:20 EGHI 201020Z VRB02KT 9000 FEW009 BKN016 10/08 Q1034 N (0°) 2.3mph 10°C 8°C
20/03/19 09:50 EGHI 200950Z VRB03KT 9000 FEW011 BKN018 10/08 Q1033 N (0°) 3.5mph 10°C 8°C
20/03/19 09:20 EGHI 200920Z 19004KT 150V230 9000 SCT014 BKN018 09/08 Q1033 S (190°) 4.6mph 9°C 8°C
20/03/19 08:50 EGHI 200850Z 19004KT 9000 SCT014 BKN018 09/07 Q1033 S (190°) 4.6mph 9°C 7°C
20/03/19 08:20 EGHI 200820Z 20003KT 9000 BKN014 08/07 Q1033 SSW (200°) 3.5mph 8°C 7°C
20/03/19 07:50 EGHI 200750Z 22004KT 180V250 9000 FEW014 SCT023 09/07 Q1033 SW (220°) 4.6mph 9°C 7°C
20/03/19 07:20 EGHI 200720Z 18003KT 9000 FEW010 SCT020 08/07 Q1032 S (180°) 3.5mph 8°C 7°C
20/03/19 06:50 EGHI 200650Z 20003KT 8000 BKN010 08/07 Q1032 SSW (200°) 3.5mph 8°C 7°C
20/03/19 06:20 EGHI 200620Z 18003KT 8000 BKN012 08/07 Q1032 S (180°) 3.5mph 8°C 7°C
20/03/19 05:50 EGHI 200550Z VRB01KT 8000 BKN010 07/06 Q1032 N (0°) 1.2mph 7°C 6°C
19/03/19 22:20 EGHI 192220Z VRB01KT 9999 BKN036 09/07 Q1031 N (0°) 1.2mph 9°C 7°C
19/03/19 21:50 EGHI 192150Z VRB03KT 9999 BKN038 09/07 Q1031 N (0°) 3.5mph 9°C 7°C
19/03/19 21:20 EGHI 192120Z VRB03KT 9999 BKN042 09/07 Q1030 N (0°) 3.5mph 9°C 7°C
19/03/19 20:50 EGHI 192050Z 23004KT CAVOK 09/07 Q1030 SW (230°) 4.6mph 9°C 7°C
19/03/19 20:20 EGHI 192020Z 20004KT CAVOK 09/07 Q1030 SSW (200°) 4.6mph 9°C 7°C
19/03/19 19:50 EGHI 191950Z VRB03KT 9999 SCT045 09/07 Q1030 N (0°) 3.5mph 9°C 7°C
19/03/19 19:20 EGHI 191920Z 22004KT 9999 SCT040 09/07 Q1030 SW (220°) 4.6mph 9°C 7°C
19/03/19 18:50 EGHI 191850Z 20006KT 9999 FEW026 BKN040 09/07 Q1030 SSW (200°) 6.9mph 9°C 7°C
19/03/19 18:20 EGHI 191820Z 22005KT 9999 BKN026 09/07 Q1029 SW (220°) 5.8mph 9°C 7°C
19/03/19 17:50 EGHI 191750Z 20006KT 9999 FEW010 BKN026 09/08 Q1029 SSW (200°) 6.9mph 9°C 8°C
19/03/19 17:20 EGHI 191720Z 20008KT 9999 FEW010 BKN026 09/08 Q1028 SSW (200°) 9.2mph 9°C 8°C
19/03/19 16:50 EGHI 191650Z 19006KT 9999 VCSH SCT006 BKN012 09/08 Q1028 VCSH S (190°) 6.9mph 9°C 8°C
19/03/19 16:20 EGHI 191620Z 21009KT 4000 BR BKN012 09/08 Q1028 BR SSW (210°) 10.4mph 9°C 8°C
19/03/19 15:50 EGHI 191550Z 21009KT 9999 SCT012 BKN020 10/07 Q1028 SSW (210°) 10.4mph 10°C 7°C
19/03/19 15:20 EGHI 191520Z 21009KT 9999 FEW014 BKN020 10/07 Q1028 SSW (210°) 10.4mph 10°C 7°C
19/03/19 14:50 EGHI 191450Z 20009KT 9999 FEW014 BKN020 10/07 Q1028 SSW (200°) 10.4mph 10°C 7°C
19/03/19 14:20 EGHI 191420Z 22009KT 190V250 9999 -SHRA FEW016 BKN023 10/07 Q1028 -SHRA SW (220°) 10.4mph 10°C 7°C
19/03/19 13:20 EGHI 191320Z 19010KT 160V220 9999 FEW018 BKN028 11/07 Q1028 S (190°) 11.5mph 11°C 7°C
19/03/19 12:50 EGHI 191250Z 19009KT 9999 FEW022 BKN034 11/07 Q1028 S (190°) 10.4mph 11°C 7°C
19/03/19 12:20 EGHI 191220Z 21007KT 160V260 9999 SCT025 BKN037 12/07 Q1028 SSW (210°) 8.1mph 12°C 7°C
19/03/19 11:50 EGHI 191150Z VRB04KT 9999 SCT025 BKN037 11/06 Q1028 N (0°) 4.6mph 11°C 6°C
19/03/19 11:20 EGHI 191120Z 22004KT 170V260 9999 FEW016 BKN037 11/07 Q1028 SW (220°) 4.6mph 11°C 7°C
19/03/19 10:50 EGHI 191050Z VRB03KT 9999 FEW012 BKN038 10/07 Q1028 N (0°) 3.5mph 10°C 7°C
19/03/19 10:20 EGHI 191020Z VRB03KT 9999 FEW012 BKN036 09/06 Q1028 N (0°) 3.5mph 9°C 6°C
19/03/19 09:50 EGHI 190950Z 19004KT 150V230 9999 FEW012 BKN037 09/07 Q1028 S (190°) 4.6mph 9°C 7°C
19/03/19 09:20 EGHI 190920Z VRB03KT 9999 FEW032 BKN042 09/06 Q1028 N (0°) 3.5mph 9°C 6°C
19/03/19 08:50 EGHI 190850Z VRB03KT 9999 FEW032 BKN042 08/06 Q1028 N (0°) 3.5mph 8°C 6°C
19/03/19 08:20 EGHI 190820Z 21004KT 9999 SCT032 BKN042 07/06 Q1027 SSW (210°) 4.6mph 7°C 6°C
19/03/19 07:50 EGHI 190750Z VRB02KT 8000 BKN044 06/05 Q1027 N (0°) 2.3mph 6°C 5°C
19/03/19 07:20 EGHI 190720Z 00000KT 8000 BKN042 06/05 Q1027 N (0°) 6°C 5°C